• Join FlightAware (Why Join?)
  • Login
  • US Flag 
06:24AM EDT


 

Airport Tracker/Info


-or-


 

Live Flight TrackerFlight Track Log ✈ N422TB ✈ 03/Aug/2014 ✈ KFMY - KFXE

Flight Track Log - Related Links

Times and Time Zones

All times are in EDT time to prevent confusion due to time zone crossing. See the N422TB flight status page for this flight to view local times or setup timezone preferences in your user account.

Time Position Orientation Groundspeed Altitude Reporting Facility
EDT Latitude Longitude Course Direction KTS MPH feet Rate Location/Type
04:26PM 26.5844 -81.7481 80° East 147 169 2,200  Level Miami Center
04:27PM 26.5864 -81.7017 87° East 148 170 3,000 720 Climbing Miami Center
04:28PM 26.5881 -81.6536 88° East 147 169 3,800 720 Climbing Miami Center
04:29PM 26.5366 -81.6402 79° East  Level Estimated
04:29PM 26.5897 -81.6119 87° East 141 162 4,600  Level Miami Center
04:30PM 26.5265 -81.5956 61° Northeast  Level Estimated
04:30PM 26.5847 -81.5686 97° East 135 155 5,300  Level Miami Center
04:31PM 26.5165 -81.5510 80° East  Level Estimated
04:31PM 26.5794 -81.5233 97° East 135 155 6,000  Level Miami Center
04:32PM 26.5744 -81.4808 97° East 138 159 6,600 480 Climbing Miami Center
04:33PM 26.5678 -81.4339 99° East 141 162 7,100 240 Climbing Miami Center
04:34PM 26.5619 -81.3853 98° East 158 182 7,100  Level Miami Center
04:35PM 26.5558 -81.3319 97° East 162 186 7,100  Level Miami Center
04:36PM 26.5500 -81.2836 98° East 162 186 7,100  Level Miami Center
04:37PM 26.5447 -81.2300 96° East 162 186 7,100  Level Miami Center
04:38PM 26.5381 -81.1808 99° East 162 186 7,100  Level Miami Center
04:39PM 26.5250 -81.1281 105° East 162 186 7,100  Level Miami Center
04:40PM 26.5117 -81.0753 106° East 164 189 7,100  Level Miami Center
04:41PM 26.4975 -81.0264 108° East 166 191 7,100 -300 Level Miami Center
04:42PM 26.4819 -80.9714 108° East 174 200 6,600 -540 Descending Miami Center
04:43PM 26.4650 -80.9172 109° East 189 217 6,000 -660 Descending Miami Center
04:44PM 26.4483 -80.8553 107° East 196 226 5,300 -720 Descending Miami Center
04:45PM 26.4350 -80.8053 107° East 197 227 4,700 -600 Descending Miami Center
04:46PM 26.4161 -80.7408 108° East 181 208 4,100 -420 Descending Miami Center
04:47PM 26.3803 -80.7111 143° Southeast 160 184 3,900 -360 Descending Miami Center
04:48PM 26.3431 -80.6814 144° Southeast 162 186 3,400 -420 Descending Miami Center
04:49PM 26.3375 -80.6300 97° East 172 198 3,100 -180 Descending Miami Center
04:50PM 26.3342 -80.5831 95° East 150 173 3,100  Level Miami Center
04:51PM 26.3314 -80.5317 93° East 159 183 3,100  Level Miami Center
04:52PM 26.3281 -80.4850 95° East 165 190 3,100  Level Miami Center
04:53PM 26.3281 -80.4753 90° East 160 184 3,100  Level Miami Center
04:53PM 26.3250 -80.4336 95° East 164 189 3,100  Level Miami Center
04:54PM 26.3261 -80.4247 82° East 161 185 3,100  Level Miami Center
04:54PM 26.3242 -80.3825 93° East 164 189 3,100  Level Miami Center
04:55PM 26.3231 -80.3697 96° East 162 186 3,100  Level Miami Center
04:55PM 26.3214 -80.3286 93° East 169 194 3,100  Level Miami Center
04:56PM 26.3164 -80.2750 96° East 167 192 3,100  Level Miami Center
04:57PM 26.3169 -80.2622 87° East 167 192 3,100  Level Miami Center
04:57PM 26.3153 -80.2236 93° East 167 192 3,100  Level Miami Center
04:58PM 26.3147 -80.2103 93° East 167 192 3,100  Level Miami Center
04:58PM 26.3122 -80.1722 94° East 163 188 3,100  Level Miami Center
04:59PM 26.3125 -80.1597 89° East 167 192 3,100  Level Miami Center
04:59PM 26.3092 -80.1186 95° East 163 188 3,100  Level Miami Center
05:00PM 26.3100 -80.1056 86° East 166 191 3,100  Level Miami Center
05:01PM 26.3083 -80.0675 93° East 165 190 3,100  Level Miami Center
05:01PM 26.3069 -80.0550 97° East 166 191 3,100  Level Miami Center
05:02PM 26.3050 -80.0161 93° East 162 186 3,100  Level Miami Center
05:02PM 26.3064 -80.0047 82° East 165 190 3,100  Level Miami Center
05:03PM 26.3161 -79.9728 71° East 143 165 3,100  Level Miami Center
05:03PM 26.3172 -79.9589 85° East 146 168 3,100  Level Miami Center
05:04PM 26.2947 -79.9456 152° Southeast 139 160 3,100 -240 Level Miami Center
05:04PM 26.2842 -79.9461 183° South 133 153 2,900 -720 Descending Miami Center
05:05PM 26.2553 -79.9403 170° South 142 163 2,400 -600 Descending Miami Center
05:05PM 26.2458 -79.9389 172° South 138 159 2,300 -300 Descending Miami Center
05:06PM 26.2225 -79.9633 223° Southwest 140 161 2,100 -240 Descending Miami Center
05:06PM 26.2231 -79.9675 278° West 138 159 2,100 -540 Level Miami Center
05:07PM 26.2136 -80.0047 254° West 142 163 1,600 -540 Descending Miami Center
05:07PM 26.2117 -80.0100 248° West 140 161 1,600 -120 Level Miami Center
05:08PM 26.2108 -80.0486 269° West 128 147 1,500  Descending Miami Center
05:08PM 26.2111 -80.0519 275° West 138 159 1,600 60 Climbing Miami Center
05:09PM 26.2089 -80.0808 265° West 107 123 1,600 -240 Level Miami Center
05:09PM 26.2064 -80.0928 257° West 113 130 1,400 -660 Descending Miami Center
05:10PM 26.2025 -80.1197 261° West 120 138 900 -720 Descending Miami Center
05:10PM 26.2019 -80.1306 267° West 114 131 700 -540 Descending Miami Center
05:11PM 26.2003 -80.1522 265° West 93 107 400 -540 Descending Miami Center
05:11PM 26.1994 -80.1597 263° West 98 113 200 -600 Descending Miami Center